Flight Track Log - Related Links

Times and Time Zones

All times are in EDT time to prevent confusion due to time zone crossing. See the UAL4206 flight status page for this flight to view local times or setup timezone preferences in your user account.

Time Position Orientation Groundspeed Altitude Reporting Facility
EDT Latitude Longitude Course Direction KTS MPH feet Rate Location/Type
Tue 10:14:30 PM 38.9667 -77.5500 North 217 250 3,400  Level Potomac TRACON
Tue 10:15:30 PM 39.0000 -77.6167 303° West 249 287 6,100 2,236 Climbing Potomac TRACON
Tue 10:18:02 PM 39.1736 -77.7336 332° Northwest 282 325 11,300 2,009 Climbing Washington Center
Tue 10:19:00 PM 39.3630 -77.4500 North  Level FlightAware Approximate
Tue 10:19:02 PM 39.2625 -77.7817 337° Northwest 318 366 13,200  Level Washington Center
Tue 10:20:03 PM 39.3533 -77.8328 336° Northwest 345 397 15,100 1,835 Climbing Washington Center
Tue 10:21:03 PM 39.4439 -77.8811 338° Northwest 356 410 16,900 1,537 Climbing Washington Center
Tue 10:22:04 PM 39.5389 -77.9325 337° Northwest 356 410 18,200 1,424 Climbing Washington Center
Tue 10:23:01 PM 39.6297 -77.9814 337° Northwest 356 410 19,700 1,570 Climbing Washington Center
Tue 10:24:33 PM 39.7828 -78.0653 337° Northwest 357 411 22,100 1,529 Climbing Cleveland Center
Tue 10:25:34 PM 39.8681 -78.1406 326° Northwest 363 418 23,600 1,500 Climbing Cleveland Center
Tue 10:26:33 PM 39.9389 -78.2464 311° West 374 430 25,100 1,210 Climbing Cleveland Center
Tue 10:27:33 PM 39.9972 -78.3419 309° West 379 436 26,000 450 Climbing Cleveland Center
Tue 10:28:33 PM 40.0703 -78.4533 311° West 390 449 26,000  Level Cleveland Center
Tue 10:29:33 PM 40.1431 -78.5678 310° West 407 468 26,000  Level Cleveland Center
Tue 10:30:33 PM 40.2203 -78.6881 310° West 421 484 26,000  Level Cleveland Center
Tue 10:31:33 PM 40.2994 -78.8083 311° West 421 484 26,000  Level Cleveland Center
Tue 10:32:33 PM 40.3722 -78.9344 307° West 426 490 26,000  Level Cleveland Center
Tue 10:33:33 PM 40.4447 -79.0608 307° West 436 502 26,000  Level Cleveland Center
Tue 10:34:33 PM 40.5172 -79.1903 306° West 436 502 26,000  Level Cleveland Center
Tue 10:35:33 PM 40.5917 -79.3225 307° West 441 507 26,000  Level Cleveland Center
Tue 10:36:33 PM 40.6639 -79.4500 307° West 441 507 26,000  Level Cleveland Center
Tue 10:37:33 PM 40.7339 -79.5803 305° West 447 514 26,000  Level Cleveland Center
Tue 10:38:33 PM 40.8058 -79.7108 306° West 447 514 26,000  Level Cleveland Center
Tue 10:39:33 PM 40.8778 -79.8417 306° West 442 509 26,000  Level Cleveland Center
Tue 10:40:33 PM 40.9514 -79.9728 307° West 447 514 26,000  Level Cleveland Center
Tue 10:41:33 PM 41.0231 -80.1014 306° West 447 514 26,000 -250 Level Cleveland Center
Tue 10:42:33 PM 41.0944 -80.2306 306° West 447 514 25,500 -900 Descending Cleveland Center
Tue 10:43:33 PM 41.1592 -80.3569 304° West 442 509 24,200 -800 Descending Cleveland Center
Tue 10:44:33 PM 41.2303 -80.4864 306° West 435 501 23,900 -1,350 Descending Cleveland Center
Tue 10:45:33 PM 41.3014 -80.6219 305° West 430 495 21,500 -2,500 Descending Cleveland Center
Tue 10:46:33 PM 41.3594 -80.7519 301° West 413 475 18,900 -2,750 Descending Cleveland Center
Tue 10:47:33 PM 41.4092 -80.8794 298° West 399 459 16,000 -3,029 Descending Cleveland Center
Tue 10:48:16 PM 41.4403 -80.9597 297° West 362 417 13,700 -3,000 Descending Cleveland Center
Tue 10:48:33 PM 41.4528 -80.9931 297° West 370 426 13,000 -2,328 Descending Cleveland Center
Tue 10:49:23 PM 41.4731 -81.0986 284° West 350 403 11,100 -1,745 Descending Cleveland Center
Tue 10:50:23 PM 41.4850 -81.2317 277° West 363 418 9,800 -991 Descending Cleveland Center
Tue 10:51:18 PM 41.4928 -81.3206 277° West 277 319 9,200 -943 Descending Cleveland Center
Tue 10:51:33 PM 41.4947 -81.3511 275° West 319 367 8,700 -1,835 Descending Cleveland Center
Tue 10:53:19 PM 41.5100 -81.5286 277° West 267 307 5,500 -1,528 Descending Cleveland Center
Tue 10:54:14 PM 41.5092 -81.6119 269° West 244 281 4,600 -892 Descending Cleveland Center
Tue 10:54:33 PM 41.5069 -81.6394 264° West 261 300 4,400 -800 Descending Cleveland Center
Tue 10:55:14 PM 41.5000 -81.7031 262° West 239 275 3,800 -878 Descending Cleveland Center

Login

Don't have an account? Register now (free) for customized features, flight alerts, and more!